Terminal Aerodrome Forecast
Issued by NWS

Home | Current Version | Previous Version | Text Only | Print | Product List | Glossary On
Versions: 1 2 3 4 5 6 7 8 9 10 11 12 13 14 15 16 17
512
FTUS41 KPBZ 232321
TAFFKL
TAF
KFKL 232321Z 2400/2424 13005KT P6SM FEW250
     FM240700 15008KT P6SM VCSH OVC100 WS020/19040KT
      TEMPO 2409/2412 5SM -SHRA OVC050
     FM241500 20010KT P6SM OVC035
     FM241700 21011KT P6SM BKN020
      AMD LTD TO CLD VIS AND WIND=

USA.gov is the U.S. government's official web portal to all federal, state and local government web resources and services.